This demonstration page uses our WeatherBlox Daily Observations layout. Learn more.

36.17497, -115.13722

Hourly Observations for July 23, 2015

Temp ( °F °C ) Dew Point ( °F °C ) Humidity (%) Winds ( mph kmh ) Pressure ( in mb ) Visibility ( mi km ) Precip ( " mm )
12:53 am 00:53 Clear 84 29 37 3 19 19 SW 7 11 29.68 1005 10 16.09344 0 0
1:53 am 01:53 Clear 82 28 45 7 26 26 Calm 29.68 1005 10 16.09344 0 0
2:53 am 02:53 Clear 82 28 46 8 28 28 S 5 7 29.71 1006 10 16.09344 0 0
3:53 am 03:53 Clear 81 27 48 9 32 32 S 8 13 29.77 1008 10 16.09344 0 0
4:53 am 04:53 Clear 79 26 48 9 34 34 SW 5 7 29.77 1008 10 16.09344 0 0
5:53 am 05:53 Sunny 77 25 48 9 36 36 SSE 5 7 29.8 1009 10 16.09344 0 0
6:53 am 06:53 Sunny 81 27 50 10 34 34 SSW 7 11 29.83 1010 10 16.09344 0 0
7:53 am 07:53 Sunny 82 28 50 10 32 32 SSW 8 13 29.8 1009 10 16.09344 0 0
8:53 am 08:53 Sunny 84 29 50 10 31 31 SE 8 13 29.8 1009 10 16.09344 0 0
9:53 am 09:53 Sunny 88 31 48 9 25 25 SE 9 15 29.8 1009 10 16.09344 0 0
10:53 am 10:53 Sunny 90 32 48 9 24 24 SE 7 11 29.8 1009 10 16.09344 0 0
11:53 am 11:53 Sunny 91 33 46 8 21 21 SE 12 19 29.77 1008 10 16.09344 0 0
12:53 pm 12:53 Sunny 97 36 39 4 13 13 SW 13 20 29.71 1006 10 16.09344 0 0
1:53 pm 13:53 Sunny 99 37 36 2 11 11 S 16 26 29.71 1006 10 16.09344 0 0
2:53 pm 14:53 Sunny 99 37 34 1 10 10 S 12 19 29.68 1005 10 16.09344 0 0
3:53 pm 15:53 Sunny 97 36 36 2 12 12 W 9 15 29.68 1005 10 16.09344 0 0
4:53 pm 16:53 Sunny 99 37 36 2 11 11 WSW 8 13 29.65 1004 10 16.09344 0 0
5:53 pm 17:53 Sunny 99 37 36 2 11 11 WSW 16 26 29.65 1004 10 16.09344 0 0
6:53 pm 18:53 Sunny 97 36 34 1 11 11 SW 10 17 29.65 1004 10 16.09344 0 0
7:53 pm 19:53 Sunny 93 34 36 2 13 13 WSW 12 19 29.71 1006 10 16.09344 0 0
8:53 pm 20:53 Clear 91 33 37 3 15 15 WSW 6 9 29.74 1007 10 16.09344 0 0
9:53 pm 21:53 Clear 90 32 37 3 16 16 S 6 9 29.8 1009 10 16.09344 0 0
10:53 pm 22:53 Clear 90 32 32 0 13 13 SSW 8 13 29.8 1009 10 16.09344 0 0
11:53 pm 23:53 Clear 88 31 34 1 15 15 SW 14 22 29.8 1009 10 16.09344 0 0

Powered by AerisWeather